SRV160M LFKJ-LIEE
Flight info
| Callsign | SRV160M |
|---|---|
| Flight time | 0h 45m |
| Altitude | 19000 |
| Route | CORSI M858 RAMEN M732 KOVAS |
| Aircraft | A319/M-SDE3FGHIRWY/LB1 |
Departure
| Time | 2026-05-07 22:43 |
|---|---|
| Airport | Ajaccio Napoléon Bonaparte airport (LFKJ) |
Arrival
| Time | 2026-05-07 23:29 |
|---|---|
| Airport | Cagliari Elmas Airport (LIEE) |
| Time | Latitude | Longitude | Altitude | Speed | Heading |
|---|---|---|---|---|---|
| 2026-05-07 22:34 | 41.92138 | 8.79680 | 23 ft | 0 kts | 348° |
| 2026-05-07 22:40 | 41.92144 | 8.79679 | 21 ft | 3 kts | 355° |
| 2026-05-07 22:40 | 41.92155 | 8.79688 | 21 ft | 1 kts | 66° |
| 2026-05-07 22:40 | 41.92138 | 8.79718 | 21 ft | 9 kts | 130° |
| 2026-05-07 22:40 | 41.92071 | 8.79718 | 23 ft | 13 kts | 203° |
| 2026-05-07 22:41 | 41.91975 | 8.79652 | 23 ft | 18 kts | 204° |
| 2026-05-07 22:41 | 41.91846 | 8.79573 | 21 ft | 21 kts | 205° |
| 2026-05-07 22:41 | 41.91698 | 8.79482 | 24 ft | 25 kts | 204° |
| 2026-05-07 22:41 | 41.91534 | 8.79380 | 22 ft | 24 kts | 206° |
| 2026-05-07 22:42 | 41.91389 | 8.79339 | 22 ft | 23 kts | 162° |
| 2026-05-07 22:42 | 41.91257 | 8.79425 | 23 ft | 16 kts | 145° |
| 2026-05-07 22:42 | 41.91264 | 8.79542 | 24 ft | 16 kts | 26° |
| 2026-05-07 22:42 | 41.91478 | 8.79679 | 23 ft | 73 kts | 25° |
| 2026-05-07 22:43 | 41.92176 | 8.80110 | 25 ft | 144 kts | 25° |
| 2026-05-07 22:43 | 41.93221 | 8.80745 | 267 ft | 180 kts | 24° |
| 2026-05-07 22:43 | 41.94414 | 8.81439 | 976 ft | 186 kts | 24° |
| 2026-05-07 22:43 | 41.95608 | 8.82142 | 1700 ft | 198 kts | 24° |
| 2026-05-07 22:44 | 41.96953 | 8.82946 | 2239 ft | 224 kts | 26° |
| 2026-05-07 22:44 | 41.98409 | 8.83993 | 3064 ft | 249 kts | 30° |
| 2026-05-07 22:44 | 41.99908 | 8.85306 | 4146 ft | 264 kts | 37° |
| 2026-05-07 22:44 | 42.01318 | 8.86944 | 5394 ft | 272 kts | 44° |
| 2026-05-07 22:45 | 42.02568 | 8.88900 | 6629 ft | 280 kts | 55° |
| 2026-05-07 22:45 | 42.03528 | 8.91222 | 7769 ft | 288 kts | 72° |
| 2026-05-07 22:45 | 42.03760 | 8.93908 | 8928 ft | 294 kts | 99° |
| 2026-05-07 22:45 | 42.03097 | 8.96500 | 10136 ft | 294 kts | 126° |
| 2026-05-07 22:46 | 42.01672 | 8.98504 | 10966 ft | 306 kts | 150° |
| 2026-05-07 22:46 | 41.99658 | 8.99606 | 11521 ft | 323 kts | 174° |
| 2026-05-07 22:46 | 41.97428 | 8.99474 | 12340 ft | 329 kts | 197° |
| 2026-05-07 22:46 | 41.95256 | 8.98466 | 13501 ft | 332 kts | 203° |
| 2026-05-07 22:47 | 41.93073 | 8.97379 | 14505 ft | 338 kts | 200° |
| 2026-05-07 22:47 | 41.90811 | 8.96448 | 15489 ft | 343 kts | 197° |
| 2026-05-07 22:47 | 41.88472 | 8.95671 | 16428 ft | 348 kts | 195° |
| 2026-05-07 22:47 | 41.86078 | 8.94988 | 17370 ft | 354 kts | 194° |
| 2026-05-07 22:48 | 41.83634 | 8.94339 | 18282 ft | 360 kts | 193° |
| 2026-05-07 22:48 | 41.81160 | 8.93699 | 18758 ft | 363 kts | 193° |
| 2026-05-07 22:48 | 41.78680 | 8.93060 | 18928 ft | 363 kts | 193° |
| 2026-05-07 22:48 | 41.76194 | 8.92415 | 18966 ft | 364 kts | 193° |
| 2026-05-07 22:49 | 41.73747 | 8.91778 | 18968 ft | 363 kts | 193° |
| 2026-05-07 22:49 | 41.71267 | 8.91130 | 18962 ft | 363 kts | 193° |
| 2026-05-07 22:49 | 41.68783 | 8.90480 | 18963 ft | 363 kts | 193° |
| 2026-05-07 22:49 | 41.66297 | 8.89829 | 18964 ft | 363 kts | 193° |
| 2026-05-07 22:50 | 41.63817 | 8.89179 | 18967 ft | 363 kts | 193° |
| 2026-05-07 22:50 | 41.61331 | 8.88529 | 18965 ft | 363 kts | 193° |
| 2026-05-07 22:50 | 41.58856 | 8.87883 | 18964 ft | 363 kts | 193° |
| 2026-05-07 22:50 | 41.56375 | 8.87236 | 18964 ft | 363 kts | 193° |
| 2026-05-07 22:51 | 41.53898 | 8.86588 | 18967 ft | 363 kts | 193° |
| 2026-05-07 22:51 | 41.51415 | 8.85940 | 18965 ft | 363 kts | 194° |
| 2026-05-07 22:51 | 41.48940 | 8.85294 | 18965 ft | 363 kts | 194° |
| 2026-05-07 22:51 | 41.46463 | 8.84648 | 18962 ft | 363 kts | 193° |
| 2026-05-07 22:52 | 41.44015 | 8.84010 | 18964 ft | 363 kts | 194° |
| 2026-05-07 22:52 | 41.41531 | 8.83364 | 18962 ft | 363 kts | 194° |
| 2026-05-07 22:52 | 41.39052 | 8.82720 | 18961 ft | 363 kts | 194° |
| 2026-05-07 22:52 | 41.36569 | 8.82075 | 18962 ft | 363 kts | 193° |
| 2026-05-07 22:53 | 41.34061 | 8.81599 | 18965 ft | 365 kts | 188° |
| 2026-05-07 22:53 | 41.31519 | 8.81443 | 18960 ft | 367 kts | 183° |
| 2026-05-07 22:53 | 41.28963 | 8.81597 | 18959 ft | 368 kts | 179° |
| 2026-05-07 22:53 | 41.26408 | 8.81829 | 18959 ft | 368 kts | 179° |
| 2026-05-07 22:54 | 41.23850 | 8.82047 | 18956 ft | 369 kts | 180° |
| 2026-05-07 22:54 | 41.21290 | 8.82262 | 18955 ft | 368 kts | 180° |
| 2026-05-07 22:54 | 41.18732 | 8.82475 | 18956 ft | 368 kts | 180° |
| 2026-05-07 22:54 | 41.16198 | 8.82687 | 18955 ft | 369 kts | 180° |
| 2026-05-07 22:55 | 41.13635 | 8.82902 | 18956 ft | 369 kts | 180° |
| 2026-05-07 22:55 | 41.11074 | 8.83117 | 18953 ft | 369 kts | 180° |
| 2026-05-07 22:55 | 41.08509 | 8.83333 | 18952 ft | 369 kts | 180° |
| 2026-05-07 22:55 | 41.05948 | 8.83548 | 18953 ft | 369 kts | 180° |
| 2026-05-07 22:56 | 41.03380 | 8.83764 | 18955 ft | 369 kts | 180° |
| 2026-05-07 22:56 | 41.00812 | 8.83980 | 18954 ft | 369 kts | 180° |
| 2026-05-07 22:56 | 40.98251 | 8.84195 | 18951 ft | 369 kts | 180° |
| 2026-05-07 22:56 | 40.95690 | 8.84409 | 18953 ft | 369 kts | 180° |
| 2026-05-07 22:57 | 40.93123 | 8.84623 | 18954 ft | 369 kts | 180° |
| 2026-05-07 22:57 | 40.90558 | 8.84838 | 18956 ft | 369 kts | 180° |
| 2026-05-07 22:57 | 40.88025 | 8.85049 | 18958 ft | 369 kts | 180° |
| 2026-05-07 22:57 | 40.85459 | 8.85263 | 18956 ft | 369 kts | 180° |
| 2026-05-07 22:58 | 40.82893 | 8.85478 | 18959 ft | 369 kts | 180° |
| 2026-05-07 22:58 | 40.80333 | 8.85693 | 18957 ft | 369 kts | 180° |
| 2026-05-07 22:58 | 40.77771 | 8.85906 | 18956 ft | 369 kts | 180° |
| 2026-05-07 22:58 | 40.75201 | 8.86120 | 18958 ft | 369 kts | 180° |
| 2026-05-07 22:59 | 40.72632 | 8.86333 | 18956 ft | 370 kts | 180° |
| 2026-05-07 22:59 | 40.70059 | 8.86547 | 18957 ft | 370 kts | 180° |
| 2026-05-07 22:59 | 40.67492 | 8.86760 | 18955 ft | 370 kts | 180° |
| 2026-05-07 22:59 | 40.64912 | 8.86974 | 18957 ft | 370 kts | 180° |
| 2026-05-07 23:00 | 40.62380 | 8.87184 | 18952 ft | 370 kts | 180° |
| 2026-05-07 23:00 | 40.59812 | 8.87396 | 18962 ft | 370 kts | 181° |
| 2026-05-07 23:00 | 40.57234 | 8.87609 | 18961 ft | 370 kts | 181° |
| 2026-05-07 23:00 | 40.54665 | 8.87822 | 18961 ft | 370 kts | 181° |
| 2026-05-07 23:01 | 40.52091 | 8.88035 | 18972 ft | 370 kts | 180° |
| 2026-05-07 23:01 | 40.49519 | 8.88247 | 18963 ft | 371 kts | 180° |
| 2026-05-07 23:01 | 40.46946 | 8.88460 | 18961 ft | 370 kts | 180° |
| 2026-05-07 23:01 | 40.44372 | 8.88672 | 18964 ft | 371 kts | 180° |
| 2026-05-07 23:02 | 40.41797 | 8.88884 | 18964 ft | 371 kts | 180° |
| 2026-05-07 23:02 | 40.39220 | 8.89096 | 18963 ft | 371 kts | 180° |
| 2026-05-07 23:02 | 40.36675 | 8.89305 | 18963 ft | 371 kts | 180° |
| 2026-05-07 23:02 | 40.34097 | 8.89517 | 18965 ft | 371 kts | 180° |
| 2026-05-07 23:03 | 40.31521 | 8.89730 | 18963 ft | 371 kts | 180° |
| 2026-05-07 23:03 | 40.28941 | 8.89942 | 18966 ft | 371 kts | 180° |
| 2026-05-07 23:03 | 40.26359 | 8.90155 | 18969 ft | 371 kts | 180° |
| 2026-05-07 23:03 | 40.23779 | 8.90366 | 18967 ft | 371 kts | 180° |
| 2026-05-07 23:04 | 40.21200 | 8.90578 | 18967 ft | 372 kts | 180° |
| 2026-05-07 23:04 | 40.18622 | 8.90790 | 18967 ft | 372 kts | 180° |
| 2026-05-07 23:04 | 40.16035 | 8.91002 | 18969 ft | 372 kts | 180° |
| 2026-05-07 23:04 | 40.13453 | 8.91214 | 18964 ft | 372 kts | 180° |
| 2026-05-07 23:05 | 40.10865 | 8.91426 | 18970 ft | 372 kts | 180° |
| 2026-05-07 23:05 | 40.08278 | 8.91638 | 18966 ft | 372 kts | 180° |
| 2026-05-07 23:05 | 40.05728 | 8.91847 | 18972 ft | 372 kts | 180° |
| 2026-05-07 23:05 | 40.03138 | 8.92059 | 18969 ft | 372 kts | 180° |
| 2026-05-07 23:06 | 40.00552 | 8.92271 | 18970 ft | 372 kts | 180° |
| 2026-05-07 23:06 | 39.97969 | 8.92482 | 18972 ft | 372 kts | 180° |
| 2026-05-07 23:06 | 39.95385 | 8.92692 | 18971 ft | 373 kts | 180° |
| 2026-05-07 23:06 | 39.93636 | 8.92835 | 18974 ft | 372 kts | 180° |
| 2026-05-07 23:07 | 39.90213 | 8.93115 | 18969 ft | 372 kts | 180° |
| 2026-05-07 23:07 | 39.88500 | 8.93255 | 18972 ft | 371 kts | 180° |
| 2026-05-07 23:07 | 39.85925 | 8.93465 | 18974 ft | 372 kts | 180° |
| 2026-05-07 23:07 | 39.83342 | 8.93691 | 18972 ft | 373 kts | 178° |
| 2026-05-07 23:08 | 39.80778 | 8.94362 | 18969 ft | 378 kts | 167° |
| 2026-05-07 23:08 | 39.78334 | 8.95671 | 18968 ft | 383 kts | 156° |
| 2026-05-07 23:08 | 39.76054 | 8.97507 | 18974 ft | 387 kts | 151° |
| 2026-05-07 23:08 | 39.73794 | 8.99399 | 18970 ft | 386 kts | 151° |
| 2026-05-07 23:09 | 39.71529 | 9.01284 | 18975 ft | 386 kts | 152° |
| 2026-05-07 23:09 | 39.69263 | 9.03163 | 18928 ft | 386 kts | 152° |
| 2026-05-07 23:09 | 39.67001 | 9.05036 | 18696 ft | 384 kts | 152° |
| 2026-05-07 23:09 | 39.64759 | 9.06892 | 18476 ft | 382 kts | 152° |
| 2026-05-07 23:10 | 39.62578 | 9.08693 | 18073 ft | 382 kts | 152° |
| 2026-05-07 23:10 | 39.60375 | 9.10510 | 17685 ft | 376 kts | 152° |
| 2026-05-07 23:10 | 39.58180 | 9.12320 | 17242 ft | 374 kts | 152° |
| 2026-05-07 23:10 | 39.55985 | 9.14128 | 16640 ft | 371 kts | 152° |
| 2026-05-07 23:11 | 39.53816 | 9.15912 | 16055 ft | 367 kts | 152° |
| 2026-05-07 23:11 | 39.51677 | 9.17672 | 15476 ft | 363 kts | 151° |
| 2026-05-07 23:11 | 39.49556 | 9.19415 | 14899 ft | 359 kts | 151° |
| 2026-05-07 23:11 | 39.47457 | 9.21139 | 14332 ft | 355 kts | 151° |
| 2026-05-07 23:12 | 39.45376 | 9.22847 | 13769 ft | 352 kts | 151° |
| 2026-05-07 23:12 | 39.43317 | 9.24535 | 13173 ft | 348 kts | 151° |
| 2026-05-07 23:12 | 39.41288 | 9.26197 | 12634 ft | 342 kts | 151° |
| 2026-05-07 23:12 | 39.39287 | 9.27835 | 12094 ft | 338 kts | 150° |
| 2026-05-07 23:13 | 39.37332 | 9.29435 | 11565 ft | 333 kts | 150° |
| 2026-05-07 23:13 | 39.35387 | 9.31026 | 11045 ft | 329 kts | 150° |
| 2026-05-07 23:13 | 39.33459 | 9.32600 | 10525 ft | 326 kts | 150° |
| 2026-05-07 23:13 | 39.31550 | 9.34160 | 10151 ft | 319 kts | 150° |
| 2026-05-07 23:14 | 39.29725 | 9.35656 | 10024 ft | 303 kts | 150° |
| 2026-05-07 23:14 | 39.27986 | 9.37080 | 9897 ft | 289 kts | 150° |
| 2026-05-07 23:14 | 39.26319 | 9.38442 | 9755 ft | 281 kts | 150° |
| 2026-05-07 23:14 | 39.24659 | 9.39793 | 9384 ft | 281 kts | 150° |
| 2026-05-07 23:15 | 39.23010 | 9.41136 | 8968 ft | 280 kts | 150° |
| 2026-05-07 23:15 | 39.21344 | 9.42490 | 8347 ft | 286 kts | 150° |
| 2026-05-07 23:15 | 39.19674 | 9.43849 | 8021 ft | 280 kts | 150° |
| 2026-05-07 23:15 | 39.18053 | 9.45170 | 7871 ft | 274 kts | 150° |
| 2026-05-07 23:16 | 39.16446 | 9.46477 | 7577 ft | 275 kts | 150° |
| 2026-05-07 23:16 | 39.14864 | 9.47764 | 7486 ft | 263 kts | 150° |
| 2026-05-07 23:16 | 39.13348 | 9.48997 | 7405 ft | 252 kts | 150° |
| 2026-05-07 23:16 | 39.11782 | 9.49814 | 7303 ft | 236 kts | 175° |
| 2026-05-07 23:17 | 39.10207 | 9.49605 | 7163 ft | 226 kts | 201° |
| 2026-05-07 23:17 | 39.08867 | 9.48552 | 6815 ft | 228 kts | 218° |
| 2026-05-07 23:17 | 39.07631 | 9.47292 | 6591 ft | 225 kts | 217° |
| 2026-05-07 23:17 | 39.06426 | 9.46073 | 6468 ft | 214 kts | 217° |
| 2026-05-07 23:18 | 39.05293 | 9.44937 | 6376 ft | 200 kts | 217° |
| 2026-05-07 23:18 | 39.04228 | 9.43873 | 6254 ft | 188 kts | 216° |
| 2026-05-07 23:18 | 39.03207 | 9.42856 | 6023 ft | 183 kts | 216° |
| 2026-05-07 23:18 | 39.02257 | 9.41911 | 5957 ft | 164 kts | 216° |
| 2026-05-07 23:19 | 39.01395 | 9.41052 | 5847 ft | 149 kts | 216° |
| 2026-05-07 23:19 | 39.00605 | 9.40266 | 5657 ft | 141 kts | 216° |
| 2026-05-07 23:19 | 39.00008 | 9.39273 | 5315 ft | 145 kts | 252° |
| 2026-05-07 23:19 | 39.00049 | 9.38003 | 5019 ft | 149 kts | 293° |
| 2026-05-07 23:20 | 39.00661 | 9.36912 | 4688 ft | 152 kts | 308° |
| 2026-05-07 23:20 | 39.01310 | 9.35867 | 4537 ft | 152 kts | 308° |
| 2026-05-07 23:20 | 39.01968 | 9.34783 | 4339 ft | 152 kts | 307° |
| 2026-05-07 23:20 | 39.02608 | 9.33723 | 4155 ft | 151 kts | 307° |
| 2026-05-07 23:21 | 39.03252 | 9.32657 | 3981 ft | 148 kts | 307° |
| 2026-05-07 23:21 | 39.03885 | 9.31607 | 4001 ft | 152 kts | 307° |
| 2026-05-07 23:21 | 39.04530 | 9.30539 | 3997 ft | 150 kts | 307° |
| 2026-05-07 23:21 | 39.05265 | 9.29597 | 4003 ft | 150 kts | 315° |
| 2026-05-07 23:22 | 39.05899 | 9.28522 | 3908 ft | 150 kts | 302° |
| 2026-05-07 23:22 | 39.06458 | 9.27408 | 3713 ft | 148 kts | 305° |
| 2026-05-07 23:22 | 39.07118 | 9.26383 | 3420 ft | 150 kts | 314° |
| 2026-05-07 23:22 | 39.07858 | 9.25462 | 3278 ft | 150 kts | 318° |
| 2026-05-07 23:23 | 39.08629 | 9.24565 | 3112 ft | 149 kts | 318° |
| 2026-05-07 23:23 | 39.09391 | 9.23681 | 2949 ft | 149 kts | 319° |
| 2026-05-07 23:23 | 39.10149 | 9.22806 | 2818 ft | 142 kts | 319° |
| 2026-05-07 23:23 | 39.10888 | 9.21950 | 2726 ft | 144 kts | 319° |
| 2026-05-07 23:24 | 39.11626 | 9.21092 | 2695 ft | 142 kts | 319° |
| 2026-05-07 23:24 | 39.12368 | 9.20238 | 2690 ft | 143 kts | 319° |
| 2026-05-07 23:24 | 39.13107 | 9.19381 | 2694 ft | 143 kts | 319° |
| 2026-05-07 23:24 | 39.13847 | 9.18525 | 2684 ft | 144 kts | 319° |
| 2026-05-07 23:25 | 39.14588 | 9.17666 | 2520 ft | 142 kts | 319° |
| 2026-05-07 23:25 | 39.15318 | 9.16822 | 2336 ft | 141 kts | 319° |
| 2026-05-07 23:25 | 39.16045 | 9.15980 | 2158 ft | 138 kts | 319° |
| 2026-05-07 23:25 | 39.16719 | 9.15199 | 1974 ft | 128 kts | 319° |
| 2026-05-07 23:26 | 39.17384 | 9.14428 | 1802 ft | 128 kts | 319° |
| 2026-05-07 23:26 | 39.18039 | 9.13669 | 1631 ft | 126 kts | 320° |
| 2026-05-07 23:26 | 39.18682 | 9.12923 | 1454 ft | 126 kts | 319° |
| 2026-05-07 23:26 | 39.19329 | 9.12174 | 1292 ft | 124 kts | 319° |
| 2026-05-07 23:27 | 39.20601 | 9.10699 | 964 ft | 122 kts | 319° |
| 2026-05-07 23:27 | 39.21228 | 9.09972 | 808 ft | 121 kts | 319° |
| 2026-05-07 23:27 | 39.21852 | 9.09247 | 662 ft | 120 kts | 319° |
| 2026-05-07 23:28 | 39.22470 | 9.08527 | 515 ft | 120 kts | 318° |
| 2026-05-07 23:28 | 39.23094 | 9.07804 | 342 ft | 121 kts | 318° |
| 2026-05-07 23:28 | 39.23709 | 9.07087 | 170 ft | 119 kts | 319° |
| 2026-05-07 23:28 | 39.24327 | 9.06379 | 37 ft | 116 kts | 318° |
| 2026-05-07 23:29 | 39.24853 | 9.05771 | 17 ft | 79 kts | 318° |
| 2026-05-07 23:29 | 39.25147 | 9.05430 | 15 ft | 42 kts | 318° |
| 2026-05-07 23:29 | 39.25247 | 9.05314 | 15 ft | 16 kts | 317° |
| 2026-05-07 23:29 | 39.25300 | 9.05245 | 14 ft | 4 kts | 11° |
| 2026-05-07 23:30 | 39.25298 | 9.05272 | 15 ft | 5 kts | 136° |
| 2026-05-07 23:30 | 39.25293 | 9.05279 | 14 ft | 1 kts | 130° |
| 2026-05-07 23:30 | 39.25301 | 9.05307 | 14 ft | 8 kts | 46° |
| 2026-05-07 23:30 | 39.25349 | 9.05370 | 15 ft | 8 kts | 48° |
| 2026-05-07 23:31 | 39.25381 | 9.05416 | 15 ft | 9 kts | 50° |
| 2026-05-07 23:31 | 39.25401 | 9.05509 | 15 ft | 14 kts | 96° |
| 2026-05-07 23:31 | 39.25382 | 9.05615 | 15 ft | 11 kts | 128° |
| 2026-05-07 23:31 | 39.25343 | 9.05692 | 15 ft | 12 kts | 93° |
| 2026-05-07 23:32 | 39.25316 | 9.05798 | 16 ft | 6 kts | 113° |
| 2026-05-07 23:32 | 39.25315 | 9.05800 | 17 ft | 0 kts | 114° |